Time;durP1;ratioP1;P1;durP2;ratioP2;P2;SDS_P1;SDS_P2;PMS_P1;PMS_P2;Temp;Humidity;BMP_temperature;BMP_pressure;BME280_temperature;BME280_humidity;BME280_pressure;Samples;Min_cycle;Max_cycle;Signal;HPM_P1;HPM_P2
2022/08/14 00:01:25;;;;;;;18.13;15.20;;;21.90;73.50;;;;;;5051135;28;20460;-68
2022/08/14 00:03:53;;;;;;;15.90;14.63;;;22.00;73.70;;;;;;5054855;28;20905;-67
2022/08/14 00:06:20;;;;;;;16.70;15.30;;;21.90;73.30;;;;;;5055444;28;20491;-68
2022/08/14 00:08:49;;;;;;;18.00;15.27;;;21.90;73.20;;;;;;5053613;28;20463;-67
2022/08/14 00:11:16;;;;;;;19.03;15.73;;;21.90;72.80;;;;;;5058823;28;20460;-68
2022/08/14 00:13:44;;;;;;;16.37;15.00;;;21.90;74.10;;;;;;5057264;28;20469;-67
2022/08/14 00:16:13;;;;;;;16.67;15.30;;;21.90;73.20;;;;;;5063790;28;20485;-67
2022/08/14 00:18:41;;;;;;;16.33;14.70;;;21.90;74.30;;;;;;5061692;28;20459;-67
2022/08/14 00:21:10;;;;;;;15.30;14.30;;;22.00;74.60;;;;;;5061521;28;20934;-67
2022/08/14 00:23:37;;;;;;;20.33;15.37;;;22.00;73.80;;;;;;5050732;28;20972;-67
2022/08/14 00:26:05;;;;;;;16.03;14.83;;;21.90;74.50;;;;;;5057083;28;20494;-68
2022/08/14 00:28:33;;;;;;;17.20;14.00;;;21.90;74.70;;;;;;5061454;28;20463;-67
2022/08/14 00:31:00;;;;;;;16.60;15.30;;;21.80;74.70;;;;;;5057575;28;20471;-67
2022/08/14 00:33:28;;;;;;;16.63;15.20;;;21.80;75.50;;;;;;5059417;28;20462;-67
2022/08/14 00:35:55;;;;;;;15.73;14.53;;;21.70;76.20;;;;;;5057004;28;20462;-67
2022/08/14 00:38:24;;;;;;;15.63;14.00;;;21.70;77.50;;;;;;5067973;28;20819;-67
2022/08/14 00:40:51;;;;;;;16.60;15.30;;;21.70;76.20;;;;;;5063692;28;20486;-67
2022/08/14 00:43:19;;;;;;;16.00;14.77;;;21.60;76.60;;;;;;5059096;28;20508;-67
2022/08/14 00:45:47;;;;;;;15.90;14.43;;;21.60;76.70;;;;;;5056283;28;20576;-68
2022/08/14 00:48:17;;;;;;;15.77;14.60;;;21.50;77.80;;;;;;5060147;28;20475;-67
2022/08/14 00:50:44;;;;;;;17.00;15.37;;;21.50;78.90;;;;;;5048999;28;21005;-67
2022/08/14 00:53:12;;;;;;;16.37;15.27;;;21.50;78.90;;;;;;5063666;28;20469;-67
2022/08/14 00:55:40;;;;;;;16.40;15.10;;;21.50;79.20;;;;;;5055247;28;20558;-67
2022/08/14 01:00:53;;;;;;;15.30;14.27;;;21.40;78.40;;;;;;5053788;28;20478;-67
2022/08/14 01:03:20;;;;;;;15.80;14.73;;;21.30;80.00;;;;;;5055149;28;20973;-67
2022/08/14 01:05:49;;;;;;;16.10;14.97;;;21.30;79.70;;;;;;5055889;28;20478;-67
2022/08/14 01:08:19;;;;;;;16.50;14.90;;;21.30;80.00;;;;;;5055672;28;20981;-67
2022/08/14 01:10:50;;;;;;;15.80;14.67;;;21.20;81.10;;;;;;5060875;28;20459;-67
2022/08/14 01:13:19;;;;;;;16.50;15.40;;;21.20;81.10;;;;;;5057267;28;20455;-68
2022/08/14 01:15:48;;;;;;;16.37;15.27;;;21.10;82.30;;;;;;5059916;28;20589;-67
2022/08/14 01:21:05;;;;;;;15.60;14.47;;;21.10;81.90;;;;;;5062494;28;20475;-69
2022/08/14 01:23:35;;;;;;;15.70;14.60;;;21.00;83.00;;;;;;5059220;28;20463;-69
2022/08/14 01:26:03;;;;;;;16.67;15.57;;;20.90;84.70;;;;;;5056159;28;20498;-68
2022/08/14 01:28:33;;;;;;;16.73;15.40;;;20.90;85.10;;;;;;5052774;28;20843;-67
2022/08/14 01:31:00;;;;;;;15.90;14.77;;;20.90;86.00;;;;;;5055851;28;20462;-68
2022/08/14 01:36:12;;;;;;;16.83;15.70;;;20.80;87.40;;;;;;5058373;28;20838;-67
2022/08/14 01:38:42;;;;;;;16.90;15.93;;;20.80;87.90;;;;;;5061433;28;20482;-68
2022/08/14 01:41:11;;;;;;;17.13;15.93;;;20.80;89.00;;;;;;5060873;28;20456;-67
2022/08/14 01:43:48;;;;;;;18.13;16.93;;;20.80;89.20;;;;;;5050592;28;21026;-68
2022/08/14 01:46:15;;;;;;;16.30;15.40;;;20.80;90.10;;;;;;5057471;28;20487;-69
2022/08/14 01:48:44;;;;;;;17.60;15.83;;;20.80;90.00;;;;;;5056936;28;20477;-69
2022/08/14 01:51:12;;;;;;;16.80;15.43;;;20.70;91.30;;;;;;5061905;28;20466;-69
2022/08/14 01:53:43;;;;;;;16.47;15.17;;;20.80;92.70;;;;;;5056549;28;20557;-68
2022/08/14 01:56:11;;;;;;;18.50;17.10;;;20.80;93.30;;;;;;5062653;28;20969;-69
2022/08/14 01:58:38;;;;;;;16.90;15.80;;;20.80;93.40;;;;;;5050340;28;20456;-69
2022/08/14 02:01:05;;;;;;;17.57;16.40;;;20.90;94.30;;;;;;5055929;28;20839;-69
2022/08/14 02:03:39;;;;;;;17.77;16.20;;;20.80;95.20;;;;;;5056787;28;20446;-68
2022/08/14 02:06:07;;;;;;;16.90;15.80;;;20.80;95.50;;;;;;5056281;28;20491;-68
2022/08/14 02:08:36;;;;;;;18.63;17.27;;;20.70;95.60;;;;;;5050810;28;20759;-68
2022/08/14 02:11:21;;;;;;;18.27;16.30;;;20.70;96.50;;;;;;5058170;28;20498;-68
2022/08/14 02:13:50;;;;;;;17.93;16.70;;;20.70;96.70;;;;;;5055018;28;20455;-69
2022/08/14 02:16:18;;;;;;;17.47;16.37;;;20.60;97.10;;;;;;5053250;28;20866;-68
2022/08/14 02:18:47;;;;;;;22.53;16.67;;;20.60;97.50;;;;;;5053357;28;20467;-69
2022/08/14 02:21:17;;;;;;;17.93;16.60;;;20.60;98.20;;;;;;5051595;28;20527;-69
2022/08/14 02:23:45;;;;;;;18.40;17.00;;;20.60;98.70;;;;;;5058775;28;20459;-69
2022/08/14 02:26:19;;;;;;;18.10;16.80;;;20.60;99.40;;;;;;5060368;28;20490;-68
2022/08/14 02:28:47;;;;;;;18.40;17.10;;;20.60;99.40;;;;;;5056325;28;20462;-68
2022/08/14 02:31:15;;;;;;;18.50;17.20;;;20.60;99.90;;;;;;5051983;28;20460;-69
2022/08/14 02:33:43;;;;;;;17.80;16.73;;;20.60;99.90;;;;;;5051446;28;20464;-65
2022/08/14 02:36:11;;;;;;;18.07;16.67;;;20.50;99.90;;;;;;5055989;28;20460;-68
2022/08/14 02:38:39;;;;;;;18.20;16.83;;;20.50;99.90;;;;;;5055723;28;20452;-69
2022/08/14 02:41:10;;;;;;;19.30;17.27;;;20.50;99.90;;;;;;5055500;28;20452;-68
2022/08/14 02:43:39;;;;;;;19.43;17.73;;;20.50;99.90;;;;;;5058048;28;20458;-69
2022/08/14 02:46:09;;;;;;;19.97;18.37;;;20.50;99.90;;;;;;5058968;28;20488;-67
2022/08/14 02:48:38;;;;;;;20.60;18.93;;;20.50;99.90;;;;;;5058882;28;20459;-68
2022/08/14 02:51:09;;;;;;;19.23;17.97;;;20.50;99.90;;;;;;5051166;28;20965;-68
2022/08/14 02:53:38;;;;;;;18.53;16.83;;;20.50;99.90;;;;;;5055096;28;20982;-69
2022/08/14 02:56:07;;;;;;;19.73;17.90;;;20.40;99.90;;;;;;5061580;28;20468;-67
2022/08/14 02:58:39;;;;;;;19.47;17.63;;;20.40;99.90;;;;;;5048632;28;20464;-68
2022/08/14 03:01:08;;;;;;;19.47;17.80;;;20.40;99.90;;;;;;5056411;28;20472;-67
2022/08/14 03:03:35;;;;;;;19.23;17.53;;;20.30;99.90;;;;;;5053128;28;20559;-68
2022/08/14 03:06:03;;;;;;;20.93;18.90;;;20.30;99.90;;;;;;5053221;28;20464;-69
2022/08/14 03:08:32;;;;;;;21.20;19.10;;;20.30;99.90;;;;;;5059943;28;20572;-69
2022/08/14 03:10:59;;;;;;;20.37;18.50;;;20.30;99.90;;;;;;5060609;28;20462;-68
2022/08/14 03:13:28;;;;;;;20.10;18.27;;;20.30;99.90;;;;;;5056194;28;20460;-68
2022/08/14 03:15:56;;;;;;;19.40;18.00;;;20.30;99.90;;;;;;5053808;28;20578;-69
2022/08/14 03:18:25;;;;;;;19.90;18.47;;;20.30;99.90;;;;;;5053747;28;20471;-68
2022/08/14 03:20:52;;;;;;;20.40;18.90;;;20.30;99.90;;;;;;5047679;28;20460;-67
2022/08/14 03:23:20;;;;;;;18.30;16.90;;;20.30;99.90;;;;;;5060010;28;20467;-68
2022/08/14 03:25:47;;;;;;;20.10;18.03;;;20.30;99.90;;;;;;5053515;28;20459;-68
2022/08/14 03:28:15;;;;;;;19.10;17.47;;;20.30;99.90;;;;;;5052513;28;22911;-68
2022/08/14 03:30:44;;;;;;;19.50;17.73;;;20.30;99.90;;;;;;5053884;28;20489;-68
2022/08/14 03:33:14;;;;;;;17.93;16.67;;;20.30;99.90;;;;;;5053876;28;20464;-67
2022/08/14 03:35:42;;;;;;;20.50;17.43;;;20.30;99.90;;;;;;5060353;28;20458;-68
2022/08/14 03:38:10;;;;;;;19.23;17.60;;;20.30;99.90;;;;;;5058319;28;20468;-68
2022/08/14 03:40:39;;;;;;;20.03;18.30;;;20.30;99.90;;;;;;5052777;28;21094;-68
2022/08/14 03:43:07;;;;;;;18.93;17.47;;;20.30;99.90;;;;;;5052407;28;20455;-68
2022/08/14 03:45:34;;;;;;;18.50;17.30;;;20.20;99.90;;;;;;5049796;28;20470;-68
2022/08/14 03:48:04;;;;;;;19.40;17.73;;;20.20;99.90;;;;;;5059485;28;21044;-67
2022/08/14 03:50:33;;;;;;;20.10;18.00;;;20.20;99.90;;;;;;5059206;28;20901;-68
2022/08/14 03:53:02;;;;;;;20.20;18.80;;;20.20;99.90;;;;;;5057774;28;20460;-68
2022/08/14 03:55:29;;;;;;;18.90;17.33;;;20.20;99.90;;;;;;5060856;28;21427;-68
2022/08/14 03:57:57;;;;;;;20.07;18.10;;;20.20;99.90;;;;;;5054535;28;20472;-68
2022/08/14 04:00:26;;;;;;;20.20;18.50;;;20.20;99.90;;;;;;5058224;28;20455;-68
2022/08/14 04:02:53;;;;;;;18.87;17.27;;;20.20;99.90;;;;;;5040784;28;20475;-68
2022/08/14 04:05:20;;;;;;;19.10;17.77;;;20.20;99.90;;;;;;5032174;28;20460;-67
2022/08/14 04:07:48;;;;;;;17.90;16.80;;;20.10;99.90;;;;;;5029814;28;20475;-68
2022/08/14 04:10:16;;;;;;;19.67;18.00;;;20.10;99.90;;;;;;5030240;28;21201;-68
2022/08/14 04:12:42;;;;;;;20.07;18.20;;;20.10;99.90;;;;;;5031382;28;20447;-68
2022/08/14 04:15:10;;;;;;;18.63;17.27;;;20.10;99.90;;;;;;5031328;28;21490;-68
2022/08/14 04:17:37;;;;;;;19.70;18.20;;;20.10;99.90;;;;;;5030726;28;20483;-68
2022/08/14 04:20:05;;;;;;;19.03;17.30;;;20.10;99.90;;;;;;5030388;28;20469;-68
2022/08/14 04:22:33;;;;;;;18.43;17.10;;;20.10;99.90;;;;;;5032305;28;20464;-67
2022/08/14 04:25:02;;;;;;;18.70;17.60;;;20.00;99.90;;;;;;5031930;28;20470;-68
2022/08/14 04:27:29;;;;;;;19.67;18.07;;;20.00;99.90;;;;;;5031524;28;22634;-68
2022/08/14 04:29:56;;;;;;;19.20;17.63;;;20.10;99.90;;;;;;5032122;28;20794;-68
2022/08/14 04:32:25;;;;;;;18.50;17.17;;;20.10;99.90;;;;;;5029513;28;20521;-69
2022/08/14 04:34:53;;;;;;;19.57;17.80;;;20.00;99.90;;;;;;5031197;28;20470;-69
2022/08/14 04:45:40;;;;;;;18.77;17.37;;;20.20;99.90;;;;;;5030871;28;21209;-69
2022/08/14 04:48:14;;;;;;;19.17;17.50;;;20.30;99.90;;;;;;5030781;28;20495;-68
2022/08/14 04:50:45;;;;;;;18.00;16.90;;;20.20;99.90;;;;;;5032236;28;21013;-68
2022/08/14 04:53:14;;;;;;;19.47;17.77;;;20.30;99.90;;;;;;5031927;28;20467;-69
2022/08/14 04:55:46;;;;;;;17.90;16.60;;;20.30;99.90;;;;;;5032544;28;20504;-68
2022/08/14 04:58:13;;;;;;;19.47;17.73;;;20.30;99.90;;;;;;5030706;28;20491;-67
2022/08/14 05:00:41;;;;;;;19.70;18.20;;;20.40;99.90;;;;;;5029292;28;20464;-68
2022/08/14 05:03:08;;;;;;;19.80;18.33;;;20.40;99.90;;;;;;5031150;28;20819;-68
2022/08/14 05:05:35;;;;;;;19.20;17.30;;;20.40;99.90;;;;;;5030281;28;20459;-68
2022/08/14 05:08:11;;;;;;;18.60;17.13;;;20.50;99.90;;;;;;5030788;28;20583;-67
2022/08/14 05:10:39;;;;;;;18.60;17.30;;;20.50;99.90;;;;;;5030628;28;21562;-67
2022/08/14 05:13:08;;;;;;;19.57;18.17;;;20.60;99.90;;;;;;5030045;28;20514;-68
2022/08/14 05:15:36;;;;;;;18.83;17.37;;;20.60;99.90;;;;;;5031003;28;20517;-68
2022/08/14 05:18:08;;;;;;;19.77;18.10;;;20.70;99.90;;;;;;5031709;28;20471;-67
2022/08/14 05:20:35;;;;;;;20.00;18.37;;;20.80;99.90;;;;;;5027932;28;20491;-67
2022/08/14 05:23:03;;;;;;;18.73;17.33;;;20.80;99.90;;;;;;5030403;28;20496;-68
2022/08/14 05:25:30;;;;;;;18.10;16.90;;;20.90;99.90;;;;;;5031419;28;21041;-67
2022/08/14 05:27:59;;;;;;;19.63;17.97;;;21.00;99.90;;;;;;5029481;28;20482;-68
2022/08/14 05:30:28;;;;;;;19.60;17.87;;;21.00;99.90;;;;;;5059534;28;20455;-68
2022/08/14 05:32:55;;;;;;;18.60;17.27;;;21.10;99.90;;;;;;5048283;28;20998;-67
2022/08/14 05:35:22;;;;;;;20.87;18.60;;;21.30;99.90;;;;;;5029920;28;20464;-67
2022/08/14 05:37:49;;;;;;;22.77;18.17;;;21.40;99.90;;;;;;5031829;28;21899;-68
2022/08/14 05:40:16;;;;;;;18.90;17.43;;;21.40;99.90;;;;;;5030826;28;20923;-68
2022/08/14 05:42:43;;;;;;;19.80;18.10;;;21.50;99.90;;;;;;5029969;28;20473;-69
2022/08/14 05:45:11;;;;;;;25.77;19.80;;;21.60;99.90;;;;;;5031462;28;20804;-68
2022/08/14 05:47:41;;;;;;;22.20;19.00;;;21.60;99.90;;;;;;5030960;28;22805;-68
2022/08/14 05:50:11;;;;;;;30.83;18.87;;;21.70;99.90;;;;;;5029664;28;20475;-68
2022/08/14 05:52:38;;;;;;;26.33;19.10;;;21.80;99.90;;;;;;5030483;28;20471;-68
2022/08/14 05:55:06;;;;;;;19.70;17.83;;;21.80;99.90;;;;;;5029989;28;20854;-68
2022/08/14 05:57:33;;;;;;;23.70;18.83;;;22.00;99.90;;;;;;5030945;28;20463;-68
2022/08/14 06:00:00;;;;;;;20.23;18.43;;;22.00;99.90;;;;;;5030725;28;20471;-68
2022/08/14 06:02:27;;;;;;;21.13;19.30;;;22.10;99.90;;;;;;5025044;28;20452;-68
2022/08/14 06:04:55;;;;;;;19.63;17.93;;;22.20;99.90;;;;;;5028608;28;20601;-68
2022/08/14 06:07:23;;;;;;;19.43;17.60;;;22.30;99.90;;;;;;5027414;28;20491;-68
2022/08/14 06:09:50;;;;;;;23.37;18.63;;;22.30;99.90;;;;;;5027615;28;20467;-68
2022/08/14 06:12:17;;;;;;;21.03;19.00;;;22.50;99.90;;;;;;5028703;28;21111;-68
2022/08/14 06:14:44;;;;;;;20.43;18.20;;;22.60;99.90;;;;;;5027334;28;20494;-69
2022/08/14 06:17:10;;;;;;;20.27;18.60;;;22.60;99.90;;;;;;5026147;28;21011;-68
2022/08/14 06:19:37;;;;;;;18.50;17.00;;;22.70;99.90;;;;;;5029911;28;20543;-68
2022/08/14 06:22:06;;;;;;;20.63;18.43;;;22.80;99.90;;;;;;5029418;28;21762;-68
2022/08/14 06:24:32;;;;;;;20.23;18.50;;;23.00;99.90;;;;;;5030771;28;20475;-68
2022/08/14 06:26:59;;;;;;;24.67;18.27;;;23.00;99.90;;;;;;5030128;28;20466;-68
2022/08/14 06:29:26;;;;;;;23.60;18.87;;;23.20;99.90;;;;;;5028307;28;20463;-67
2022/08/14 06:31:53;;;;;;;20.80;18.17;;;23.20;99.90;;;;;;5027736;28;20559;-67
2022/08/14 06:34:20;;;;;;;19.53;17.80;;;23.30;99.90;;;;;;5030152;28;20471;-68
2022/08/14 06:36:46;;;;;;;24.57;17.90;;;23.50;99.90;;;;;;5028565;28;20577;-69
2022/08/14 06:39:15;;;;;;;19.60;17.97;;;23.50;99.90;;;;;;5026203;28;20474;-68
2022/08/14 06:41:42;;;;;;;19.10;17.80;;;23.70;99.90;;;;;;5028786;28;21038;-67
2022/08/14 06:44:09;;;;;;;19.23;17.70;;;23.80;99.90;;;;;;5027776;28;20467;-68
2022/08/14 06:46:36;;;;;;;20.13;17.90;;;24.10;99.90;;;;;;5027929;28;20970;-69
2022/08/14 06:49:03;;;;;;;20.27;18.67;;;24.10;99.90;;;;;;5030352;28;20491;-68
2022/08/14 06:51:30;;;;;;;19.23;17.83;;;24.10;99.90;;;;;;5028527;28;20802;-67
2022/08/14 06:53:57;;;;;;;18.10;16.80;;;24.30;99.90;;;;;;5028588;28;20483;-68
2022/08/14 06:56:25;;;;;;;19.67;17.87;;;24.50;99.90;;;;;;5029680;28;20467;-68
2022/08/14 06:58:52;;;;;;;18.63;17.40;;;24.60;99.90;;;;;;5027453;28;20468;-68
2022/08/14 07:06:49;;;;;;;20.80;18.67;;;24.90;99.90;;;;;;5028094;28;21185;-69
2022/08/14 07:09:16;;;;;;;18.90;17.60;;;25.20;99.90;;;;;;5028880;28;21109;-69
2022/08/14 07:11:44;;;;;;;19.03;17.63;;;25.30;99.90;;;;;;5028127;28;20966;-69
2022/08/14 07:14:11;;;;;;;19.50;17.50;;;25.40;99.90;;;;;;5026929;28;20500;-68
2022/08/14 07:16:38;;;;;;;18.97;17.27;;;25.40;99.90;;;;;;5028723;28;20988;-68
2022/08/14 07:19:07;;;;;;;18.80;17.40;;;25.50;99.90;;;;;;5029971;28;20467;-67
2022/08/14 07:21:35;;;;;;;19.57;18.07;;;25.60;99.90;;;;;;5026642;28;20594;-68
2022/08/14 07:24:02;;;;;;;18.67;17.40;;;25.70;99.90;;;;;;5028699;28;20698;-69
2022/08/14 07:26:29;;;;;;;20.13;18.27;;;25.80;99.90;;;;;;5028863;28;20810;-69
2022/08/14 07:28:58;;;;;;;20.33;18.73;;;25.90;99.90;;;;;;5028565;28;20501;-69
2022/08/14 07:31:24;;;;;;;19.03;17.60;;;26.00;99.90;;;;;;5028977;28;20501;-66
2022/08/14 07:33:51;;;;;;;19.63;18.00;;;26.10;99.90;;;;;;5029096;28;20853;-68
2022/08/14 07:36:20;;;;;;;18.90;17.47;;;26.30;99.90;;;;;;5028193;28;20483;-68
2022/08/14 07:38:47;;;;;;;19.00;17.73;;;26.40;99.90;;;;;;5029083;28;20466;-69
2022/08/14 07:41:14;;;;;;;18.20;17.07;;;26.60;99.90;;;;;;5028794;28;20471;-68
2022/08/14 07:43:42;;;;;;;19.23;17.73;;;26.70;99.80;;;;;;5027755;28;20464;-68
2022/08/14 07:46:10;;;;;;;19.53;18.20;;;26.90;98.50;;;;;;5028844;28;20460;-67
2022/08/14 07:48:40;;;;;;;19.73;18.30;;;26.90;98.50;;;;;;5034058;28;20859;-68
2022/08/14 07:51:07;;;;;;;18.50;17.20;;;26.90;98.00;;;;;;5052949;28;20471;-68
2022/08/14 07:53:33;;;;;;;18.80;17.50;;;26.80;98.00;;;;;;5032632;28;20475;-68
2022/08/14 07:56:00;;;;;;;19.13;17.80;;;26.80;98.60;;;;;;5027740;28;20458;-67
2022/08/14 07:58:28;;;;;;;18.17;16.70;;;27.00;98.10;;;;;;5029353;28;20772;-67
2022/08/14 08:00:57;;;;;;;18.80;17.37;;;27.00;97.40;;;;;;5027374;28;20455;-69
2022/08/14 08:03:26;;;;;;;18.80;17.60;;;27.10;96.90;;;;;;5029771;28;20496;-68
2022/08/14 08:05:53;;;;;;;18.57;17.30;;;27.00;97.20;;;;;;5028495;28;20844;-68
2022/08/14 08:08:20;;;;;;;18.03;16.43;;;27.10;97.10;;;;;;5028265;28;20897;-68
2022/08/14 08:10:48;;;;;;;19.30;17.50;;;27.20;96.60;;;;;;5028694;28;20464;-69
2022/08/14 08:13:17;;;;;;;19.20;17.10;;;27.10;96.60;;;;;;5027903;28;20468;-69
2022/08/14 08:15:45;;;;;;;18.70;17.30;;;27.30;96.50;;;;;;5028976;28;20513;-68
2022/08/14 08:18:14;;;;;;;19.20;17.77;;;27.40;96.20;;;;;;5027660;28;20472;-68
2022/08/14 08:20:45;;;;;;;25.43;17.00;;;27.40;95.60;;;;;;5028883;28;20852;-70
2022/08/14 08:23:13;;;;;;;19.13;17.50;;;27.60;95.30;;;;;;5028939;28;20541;-69
2022/08/14 08:25:41;;;;;;;19.70;18.20;;;27.90;95.20;;;;;;5028939;28;20459;-69
2022/08/14 08:28:11;;;;;;;21.40;17.70;;;28.00;94.60;;;;;;5028275;28;21037;-68
2022/08/14 08:30:43;;;;;;;19.10;17.70;;;28.00;94.40;;;;;;5027313;28;20475;-69
2022/08/14 08:33:10;;;;;;;19.43;18.00;;;28.00;93.90;;;;;;5028350;28;20475;-69
2022/08/14 08:35:39;;;;;;;18.00;16.63;;;28.20;93.60;;;;;;5030694;28;20468;-69
2022/08/14 08:38:10;;;;;;;19.30;17.90;;;28.50;93.00;;;;;;5031463;28;20460;-69
2022/08/14 08:40:39;;;;;;;19.00;17.30;;;28.70;92.90;;;;;;5031366;28;21265;-69
2022/08/14 08:43:07;;;;;;;19.33;17.97;;;28.40;91.40;;;;;;5032731;28;20598;-69
2022/08/14 08:45:35;;;;;;;17.60;16.70;;;28.70;91.80;;;;;;5030324;28;20471;-68
2022/08/14 08:48:03;;;;;;;17.83;16.83;;;29.50;91.00;;;;;;5030855;28;21010;-69
2022/08/14 08:50:33;;;;;;;18.80;17.60;;;30.10;87.60;;;;;;5030580;28;23209;-68
2022/08/14 08:53:03;;;;;;;18.20;17.00;;;30.70;83.50;;;;;;5029641;28;20471;-69
2022/08/14 08:55:34;;;;;;;19.20;17.90;;;31.60;81.90;;;;;;5030391;28;22370;-71
2022/08/14 08:58:04;;;;;;;18.07;16.97;;;32.30;76.30;;;;;;5030051;28;20478;-68
2022/08/14 09:00:33;;;;;;;18.93;17.70;;;32.20;73.10;;;;;;5030520;28;20467;-68
2022/08/14 09:03:03;;;;;;;17.63;16.40;;;32.40;71.00;;;;;;5030901;28;20837;-69
2022/08/14 09:05:32;;;;;;;18.80;17.70;;;33.20;68.70;;;;;;5030882;28;20617;-69
2022/08/14 09:08:16;;;;;;;18.87;17.37;;;33.10;66.70;;;;;;5029952;28;20498;-69
2022/08/14 09:10:46;;;;;;;17.90;16.90;;;33.60;64.70;;;;;;5030821;28;20468;-69
2022/08/14 09:13:14;;;;;;;18.57;17.17;;;33.90;62.50;;;;;;5030869;28;20670;-69
2022/08/14 09:15:42;;;;;;;28.10;17.90;;;34.30;59.80;;;;;;5031150;28;20491;-69
2022/08/14 09:18:09;;;;;;;17.20;16.00;;;34.90;58.40;;;;;;5031582;28;20460;-68
2022/08/14 09:20:40;;;;;;;17.50;16.20;;;34.70;58.40;;;;;;5031259;28;20959;-69
2022/08/14 09:23:07;;;;;;;17.03;15.77;;;34.90;57.30;;;;;;5031198;28;20524;-69
2022/08/14 09:25:49;;;;;;;17.77;16.30;;;35.50;56.00;;;;;;5030805;28;20479;-68
2022/08/14 09:28:19;;;;;;;16.97;16.07;;;36.00;54.60;;;;;;5030008;28;20976;-69
2022/08/14 09:30:51;;;;;;;16.53;15.50;;;36.00;52.80;;;;;;5030655;28;21067;-69
2022/08/14 09:33:52;;;;;;;16.50;15.30;;;36.40;51.50;;;;;;5030752;28;20563;-69
2022/08/14 09:36:32;;;;;;;15.17;14.20;;;36.10;50.30;;;;;;5030654;28;20456;-69
2022/08/14 09:39:08;;;;;;;16.37;15.40;;;36.90;48.60;;;;;;5030957;28;20464;-69
2022/08/14 09:41:50;;;;;;;16.33;15.23;;;37.60;47.50;;;;;;5030711;28;20597;-71
2022/08/14 09:44:32;;;;;;;15.40;14.60;;;37.30;45.90;;;;;;5030545;28;20458;-69
2022/08/14 09:46:59;;;;;;;15.80;14.70;;;36.20;46.60;;;;;;5030333;28;20491;-69
2022/08/14 09:49:34;;;;;;;16.40;15.40;;;36.50;46.90;;;;;;5029484;28;20506;-70
2022/08/14 09:52:06;;;;;;;15.30;14.50;;;36.80;45.50;;;;;;5030418;28;21297;-69
2022/08/14 09:54:38;;;;;;;15.77;14.83;;;36.80;45.70;;;;;;5029841;28;20556;-69
2022/08/14 09:57:09;;;;;;;15.53;14.67;;;36.60;45.60;;;;;;5028432;28;21097;-68
2022/08/14 09:59:48;;;;;;;15.53;14.37;;;36.90;45.50;;;;;;5027401;28;21119;-69
2022/08/14 10:02:26;;;;;;;15.00;14.30;;;37.00;43.60;;;;;;5029916;28;20478;-69
2022/08/14 10:05:01;;;;;;;14.83;13.90;;;37.00;44.00;;;;;;5031063;28;20456;-71
2022/08/14 10:07:33;;;;;;;15.40;14.50;;;38.20;43.10;;;;;;5029237;28;20585;-70
2022/08/14 10:10:01;;;;;;;15.87;14.97;;;38.00;43.40;;;;;;5029870;28;20512;-68
2022/08/14 10:12:44;;;;;;;15.10;14.20;;;38.10;40.90;;;;;;5029820;28;20948;-69
2022/08/14 10:15:21;;;;;;;16.40;14.83;;;38.00;41.00;;;;;;5030602;28;20532;-71
2022/08/14 10:17:48;;;;;;;15.13;14.13;;;37.40;40.10;;;;;;5030892;28;20992;-71
2022/08/14 10:20:19;;;;;;;13.70;13.00;;;36.80;39.60;;;;;;5029418;28;20493;-70
2022/08/14 10:22:48;;;;;;;14.13;13.33;;;36.90;37.60;;;;;;5029234;28;20462;-70
2022/08/14 10:25:17;;;;;;;15.13;14.13;;;36.10;40.60;;;;;;5030283;28;20456;-70
2022/08/14 10:27:48;;;;;;;13.20;12.60;;;36.40;39.60;;;;;;5030775;28;20470;-70
2022/08/14 10:30:18;;;;;;;14.50;13.53;;;36.50;40.00;;;;;;5029711;28;20519;-68
2022/08/14 10:32:47;;;;;;;13.83;12.93;;;37.10;39.70;;;;;;5028015;28;20460;-69
2022/08/14 10:35:15;;;;;;;13.17;12.57;;;37.10;38.20;;;;;;5028902;28;20467;-68
2022/08/14 10:37:48;;;;;;;14.33;13.63;;;37.10;36.80;;;;;;5030122;28;20476;-71
2022/08/14 10:40:25;;;;;;;14.77;13.93;;;36.50;39.40;;;;;;5029824;28;20468;-70
2022/08/14 10:42:52;;;;;;;14.50;13.53;;;37.60;38.30;;;;;;5028656;28;20468;-71
2022/08/14 10:45:34;;;;;;;14.60;13.80;;;37.80;37.80;;;;;;5029330;28;20460;-70
2022/08/14 10:48:13;;;;;;;13.97;13.07;;;37.40;36.90;;;;;;5029367;28;21139;-68
2022/08/14 10:50:44;;;;;;;14.10;13.50;;;37.20;37.50;;;;;;5029224;28;20480;-69
2022/08/14 10:53:13;;;;;;;14.77;14.00;;;36.90;37.50;;;;;;5029236;28;20470;-69
2022/08/14 10:55:40;;;;;;;14.87;13.87;;;36.50;38.50;;;;;;5029372;28;20463;-68
2022/08/14 10:58:10;;;;;;;14.30;13.40;;;37.30;37.80;;;;;;5029001;28;21090;-71
2022/08/14 11:00:38;;;;;;;14.03;13.20;;;37.40;37.00;;;;;;5028888;28;20880;-71
2022/08/14 11:03:12;;;;;;;14.30;13.50;;;37.60;37.40;;;;;;5029877;28;20464;-71
2022/08/14 11:05:42;;;;;;;13.17;12.57;;;37.90;36.40;;;;;;5029302;28;20494;-69
2022/08/14 11:08:09;;;;;;;14.37;13.47;;;38.70;36.10;;;;;;5029317;28;20555;-69
2022/08/14 11:10:43;;;;;;;14.33;13.53;;;38.80;35.20;;;;;;5029447;28;20502;-69
2022/08/14 11:13:15;;;;;;;14.03;13.20;;;39.20;34.90;;;;;;5029470;28;20541;-69
2022/08/14 11:15:45;;;;;;;15.17;13.90;;;39.70;33.50;;;;;;5029081;28;20545;-70
2022/08/14 11:18:14;;;;;;;14.63;13.60;;;39.90;33.10;;;;;;5029413;28;21186;-69
2022/08/14 11:20:48;;;;;;;15.50;14.13;;;39.80;33.00;;;;;;5027886;28;20835;-70
2022/08/14 11:23:16;;;;;;;14.07;13.37;;;39.90;33.20;;;;;;5028433;28;20459;-69
2022/08/14 11:25:46;;;;;;;15.10;13.90;;;39.50;32.70;;;;;;5027903;28;21157;-69
2022/08/14 11:28:14;;;;;;;14.70;14.00;;;39.50;33.30;;;;;;5029464;28;20909;-69
2022/08/14 11:30:43;;;;;;;14.90;14.10;;;40.20;32.50;;;;;;5029666;28;20500;-69
2022/08/14 11:33:11;;;;;;;15.17;13.87;;;40.30;32.20;;;;;;5029644;28;20501;-70
2022/08/14 11:35:41;;;;;;;13.50;12.90;;;40.70;31.00;;;;;;5027469;28;20487;-69
2022/08/14 11:38:10;;;;;;;13.53;12.40;;;41.20;29.50;;;;;;5029924;28;20470;-70
2022/08/14 11:40:39;;;;;;;13.73;12.90;;;41.00;29.70;;;;;;5029553;28;20971;-69
2022/08/14 11:43:08;;;;;;;13.73;12.90;;;40.80;30.10;;;;;;5030220;28;20468;-70
2022/08/14 11:45:37;;;;;;;13.53;12.83;;;40.60;29.70;;;;;;5029383;28;20903;-69
2022/08/14 11:48:15;;;;;;;13.30;12.60;;;41.00;29.80;;;;;;5029028;28;20459;-70
2022/08/14 11:50:44;;;;;;;13.47;12.77;;;41.50;29.40;;;;;;5028978;28;21043;-69
2022/08/14 11:53:20;;;;;;;12.83;12.23;;;42.10;28.10;;;;;;5028855;28;20464;-68
2022/08/14 11:55:49;;;;;;;13.27;12.10;;;41.80;28.50;;;;;;5029431;28;20474;-69
2022/08/14 11:58:17;;;;;;;12.90;12.17;;;41.50;28.30;;;;;;5028871;28;20783;-70
2022/08/14 12:00:49;;;;;;;13.33;11.83;;;41.90;27.70;;;;;;5028652;28;20564;-69
2022/08/14 12:03:16;;;;;;;12.70;12.10;;;41.80;28.40;;;;;;5029501;28;22787;-68
2022/08/14 12:05:45;;;;;;;11.80;11.20;;;42.10;27.60;;;;;;5028603;28;20979;-69
2022/08/14 12:08:12;;;;;;;12.07;11.57;;;42.80;27.10;;;;;;5027921;28;20481;-70
2022/08/14 12:10:41;;;;;;;12.67;11.97;;;43.10;26.50;;;;;;5032371;28;20467;-69
2022/08/14 12:13:13;;;;;;;12.90;12.13;;;42.80;26.40;;;;;;5031319;28;20460;-69
2022/08/14 12:15:41;;;;;;;13.53;12.73;;;42.90;26.00;;;;;;5025496;28;20545;-70
2022/08/14 12:18:08;;;;;;;12.90;12.30;;;42.80;26.40;;;;;;5031990;28;21004;-69
2022/08/14 12:20:36;;;;;;;12.97;12.37;;;41.90;27.00;;;;;;5031966;28;20502;-70
2022/08/14 12:23:06;;;;;;;12.70;12.03;;;42.30;27.20;;;;;;5032158;28;20772;-70
2022/08/14 12:25:34;;;;;;;12.53;11.73;;;43.00;26.70;;;;;;5032113;28;20966;-71
2022/08/14 12:28:04;;;;;;;11.90;11.20;;;43.10;26.50;;;;;;5032624;28;20459;-70
2022/08/14 12:30:34;;;;;;;11.80;11.30;;;42.50;26.20;;;;;;5053258;28;20575;-70
2022/08/14 12:33:02;;;;;;;13.00;12.30;;;42.60;26.30;;;;;;5031588;28;21116;-70
2022/08/14 12:35:39;;;;;;;12.50;11.90;;;43.70;25.80;;;;;;5031273;28;20481;-70
2022/08/14 12:38:09;;;;;;;12.53;11.73;;;43.70;25.20;;;;;;5032531;28;21274;-70
2022/08/14 12:40:46;;;;;;;12.77;12.07;;;44.00;25.10;;;;;;5032246;28;21194;-70
2022/08/14 12:43:14;;;;;;;11.50;10.90;;;43.90;25.00;;;;;;5031450;28;20463;-70
2022/08/14 12:45:48;;;;;;;12.43;11.73;;;43.40;25.00;;;;;;5032531;28;20632;-70
2022/08/14 12:48:16;;;;;;;12.03;11.37;;;43.10;25.40;;;;;;5032360;28;20818;-70
2022/08/14 12:50:44;;;;;;;12.00;11.40;;;42.50;25.10;;;;;;5032056;28;20480;-70
2022/08/14 12:53:13;;;;;;;12.00;11.20;;;42.80;24.80;;;;;;5031254;28;20919;-69
2022/08/14 12:56:02;;;;;;;12.70;11.90;;;43.70;24.60;;;;;;5032129;28;21080;-69
2022/08/14 12:58:29;;;;;;;12.30;11.60;;;43.50;24.70;;;;;;5031182;28;20451;-69
2022/08/14 13:00:57;;;;;;;11.97;11.37;;;43.50;24.50;;;;;;5031612;28;22607;-69